aviador You're here:

CYRL Decoded Metar

RED LAKE AIRPORT in ON, CANADA
Report Time2017-09-22 11:00:00
UTC Time2017-09-22 11:38:21
Flight Rules vfr VFR
WindCalm
Visibility9999 m
Phenomena:N/A
Clouds:Broken 070 Hf
Broken 220 Hf
Ceiling7,000 ft
Temp07°C (ISA -6)
Dew Point07°C (100% RH)
AAT6.3°C
QNH1011 hPa
Density Alt804 ft
Elevation1,257 ft
Report Wrong Elevation
Raw Report
CYRL 221100Z 00000KT 15SM BKN070 BKN220 07/07 A2985 RMK AC5CI1
SLP118=

Extra information for CYRL:More info

Metar Taf Metar & Taf Last 4 Metars F.Rules Stats Wind Profile Meteogram Temp Stats Airport Information Weather charts Add Link Nearby VenuesMetar ALERT Operation Metar Decoded Social comments